Time;durP1;ratioP1;P1;durP2;ratioP2;P2;SDS_P1;SDS_P2;PMS_P1;PMS_P2;Temp;Humidity;BMP_temperature;BMP_pressure;BME280_temperature;BME280_humidity;BME280_pressure;Samples;Min_cycle;Max_cycle;Signal;HPM_P1;HPM_P2
2022/11/15 00:00:31;;;;;;;19.80;10.98;;;7.50;99.90;;;;;;6127470;19;20265;-65
2022/11/15 00:02:35;;;;;;;19.90;10.68;;;7.60;99.90;;;;;;6127379;19;19914;-65
2022/11/15 00:04:39;;;;;;;19.40;10.30;;;7.50;99.90;;;;;;6120528;19;19927;-65
2022/11/15 00:06:43;;;;;;;18.83;11.05;;;7.40;99.90;;;;;;6129877;19;19986;-65
2022/11/15 00:08:47;;;;;;;19.85;11.27;;;7.40;99.90;;;;;;6126855;19;19915;-66
2022/11/15 00:10:57;;;;;;;20.75;10.70;;;7.50;99.90;;;;;;6125253;19;20559;-65
2022/11/15 00:13:01;;;;;;;17.83;10.43;;;7.20;99.90;;;;;;6126948;19;20360;-65
2022/11/15 00:15:05;;;;;;;20.83;10.40;;;7.30;99.90;;;;;;6127823;19;19926;-65
2022/11/15 00:17:12;;;;;;;19.38;10.30;;;7.50;99.90;;;;;;6126658;19;19935;-65
2022/11/15 00:19:16;;;;;;;19.10;10.57;;;7.30;99.90;;;;;;6127324;19;19934;-64
2022/11/15 00:21:20;;;;;;;21.73;10.88;;;7.30;99.90;;;;;;6118033;19;20077;-65
2022/11/15 00:23:24;;;;;;;20.08;9.82;;;;;;;;;;6129391;19;20289;-64
2022/11/15 00:25:29;;;;;;;20.48;10.77;;;7.30;99.90;;;;;;6126396;19;19914;-65
2022/11/15 00:27:33;;;;;;;22.48;11.38;;;;;;;;;;6126828;19;19930;-65
2022/11/15 00:29:38;;;;;;;19.13;10.63;;;7.00;99.90;;;;;;6127362;19;19938;-65
2022/11/15 00:31:42;;;;;;;17.15;10.18;;;7.20;99.90;;;;;;6126782;19;19919;-65
2022/11/15 00:33:49;;;;;;;20.88;10.85;;;7.20;99.90;;;;;;6127025;19;19918;-65
2022/11/15 00:35:53;;;;;;;18.45;10.02;;;;;;;;;;6126651;19;19930;-66
2022/11/15 00:37:57;;;;;;;18.95;10.20;;;6.90;99.90;;;;;;6120593;19;19921;-65
2022/11/15 00:40:00;;;;;;;19.08;10.25;;;7.10;99.90;;;;;;6124972;19;19950;-66
2022/11/15 00:42:04;;;;;;;17.88;10.73;;;;;;;;;;6128513;19;20355;-65
2022/11/15 00:44:08;;;;;;;18.80;10.00;;;7.00;99.90;;;;;;6126625;19;19938;-64
2022/11/15 00:46:12;;;;;;;17.42;9.52;;;;;;;;;;6127306;19;19914;-64
2022/11/15 00:48:16;;;;;;;18.08;10.27;;;7.00;99.90;;;;;;6126696;19;19915;-65
2022/11/15 00:50:23;;;;;;;17.88;10.35;;;6.50;99.90;;;;;;6127931;19;19939;-66
2022/11/15 00:52:27;;;;;;;17.60;9.75;;;6.80;99.90;;;;;;6129573;19;19950;-66
2022/11/15 00:54:31;;;;;;;23.65;10.70;;;6.80;99.90;;;;;;6118344;19;20014;-66
2022/11/15 00:56:35;;;;;;;16.48;9.60;;;6.80;99.90;;;;;;6123744;19;19922;-64
2022/11/15 00:58:39;;;;;;;17.15;10.27;;;6.60;99.90;;;;;;6128924;19;20340;-64
2022/11/15 01:00:43;;;;;;;20.70;9.90;;;;;;;;;;6125972;19;20292;-64
2022/11/15 01:02:46;;;;;;;18.77;10.30;;;6.80;99.90;;;;;;6128869;19;19914;-64
2022/11/15 01:04:51;;;;;;;18.42;9.90;;;6.60;99.90;;;;;;6125635;19;19914;-64
2022/11/15 01:06:57;;;;;;;19.92;10.13;;;6.40;99.90;;;;;;6127285;19;19938;-64
2022/11/15 01:09:01;;;;;;;16.85;9.52;;;6.70;99.90;;;;;;6125663;19;19914;-64
2022/11/15 01:11:07;;;;;;;16.05;9.40;;;6.50;99.90;;;;;;6126536;19;19911;-64
2022/11/15 01:13:11;;;;;;;19.42;10.32;;;6.40;99.90;;;;;;6119487;19;19937;-65
2022/11/15 01:15:15;;;;;;;17.83;8.35;;;6.40;99.90;;;;;;6125327;19;19925;-64
2022/11/15 01:17:19;;;;;;;19.67;10.27;;;6.50;99.90;;;;;;6127272;19;19938;-64
2022/11/15 01:19:23;;;;;;;14.80;8.70;;;;;;;;;;6125645;19;19918;-64
2022/11/15 01:21:27;;;;;;;15.20;9.05;;;6.00;99.90;;;;;;6127923;19;19922;-64
2022/11/15 01:23:33;;;;;;;19.45;9.30;;;6.40;99.90;;;;;;6131098;19;19924;-64
2022/11/15 01:25:37;;;;;;;15.60;9.10;;;6.30;99.90;;;;;;6131509;19;19920;-64
2022/11/15 01:27:41;;;;;;;15.43;8.70;;;5.90;99.90;;;;;;6129418;19;20237;-64
2022/11/15 01:29:45;;;;;;;18.08;9.70;;;6.00;99.90;;;;;;6131238;19;19919;-64
2022/11/15 01:31:49;;;;;;;17.50;9.68;;;;;;;;;;6126478;19;19914;-64
2022/11/15 01:33:53;;;;;;;16.05;8.40;;;;;;;;;;6133689;19;20344;-64
2022/11/15 01:35:57;;;;;;;15.18;8.60;;;6.30;99.90;;;;;;6130963;19;19925;-64
2022/11/15 01:38:01;;;;;;;17.67;9.90;;;6.20;99.90;;;;;;6132012;19;19919;-64
2022/11/15 01:40:09;;;;;;;15.93;8.50;;;6.20;99.90;;;;;;6134215;19;19938;-64
2022/11/15 01:42:15;;;;;;;18.52;9.65;;;6.20;99.90;;;;;;6130697;19;19946;-65
2022/11/15 01:44:45;;;;;;;15.35;8.63;;;6.30;99.90;;;;;;6129419;19;19939;-64
2022/11/15 01:46:50;;;;;;;16.63;9.70;;;6.20;99.90;;;;;;6129713;19;19942;-64
2022/11/15 01:48:56;;;;;;;18.33;10.75;;;6.30;99.90;;;;;;6130419;19;19914;-64
2022/11/15 01:51:02;;;;;;;17.67;10.32;;;6.50;99.90;;;;;;6132050;19;20305;-64
2022/11/15 01:53:06;;;;;;;20.38;10.35;;;;;;;;;;6124266;19;19925;-64
2022/11/15 01:55:17;;;;;;;17.10;9.88;;;6.60;99.90;;;;;;6133381;19;19985;-64
2022/11/15 01:57:21;;;;;;;18.00;10.20;;;;;;;;;;6129681;19;19918;-65
2022/11/15 01:59:25;;;;;;;22.88;11.35;;;;;;;;;;6124494;19;20022;-64
2022/11/15 02:01:30;;;;;;;19.33;11.10;;;6.50;99.90;;;;;;6131708;19;19922;-64
2022/11/15 02:03:39;;;;;;;18.95;10.70;;;6.60;99.90;;;;;;6124836;19;19915;-64
2022/11/15 02:05:44;;;;;;;19.30;10.13;;;6.70;99.90;;;;;;6130472;19;19922;-64
2022/11/15 02:07:49;;;;;;;21.67;11.90;;;6.80;99.90;;;;;;6132368;19;19930;-65
2022/11/15 02:09:55;;;;;;;19.05;11.05;;;6.80;99.90;;;;;;6129943;19;20316;-66
2022/11/15 02:12:02;;;;;;;18.83;11.00;;;6.90;99.90;;;;;;6133460;19;19950;-65
2022/11/15 02:14:07;;;;;;;22.10;11.75;;;7.00;99.90;;;;;;6130903;19;19917;-65
2022/11/15 02:16:22;;;;;;;20.00;10.80;;;6.80;99.90;;;;;;6132125;19;20336;-65
2022/11/15 02:18:34;;;;;;;18.33;10.07;;;7.00;99.90;;;;;;6131337;19;19926;-65
2022/11/15 02:21:08;;;;;;;21.45;11.18;;;6.80;99.90;;;;;;6125316;19;20589;-64
2022/11/15 02:23:34;;;;;;;19.40;10.48;;;6.80;99.90;;;;;;6131377;19;19923;-65
2022/11/15 02:25:45;;;;;;;18.98;9.32;;;7.10;99.90;;;;;;6128151;19;19926;-65
2022/11/15 02:28:09;;;;;;;19.58;9.77;;;6.70;99.90;;;;;;6131903;19;20379;-65
2022/11/15 02:30:23;;;;;;;19.08;9.98;;;7.10;99.90;;;;;;6131463;19;19951;-65
2022/11/15 02:32:29;;;;;;;;;;;7.10;99.90;;;;;;6134101;19;19915;-66
2022/11/15 02:34:44;;;;;;;19.20;10.68;;;7.30;99.90;;;;;;6128040;19;19915;-65
2022/11/15 02:36:58;;;;;;;19.23;10.40;;;7.00;99.90;;;;;;6127235;19;19931;-65
2022/11/15 02:39:05;;;;;;;;;;;7.10;99.90;;;;;;6129074;19;19922;-65
2022/11/15 02:41:13;;;;;;;21.25;10.07;;;7.00;99.90;;;;;;6131447;19;19953;-65
2022/11/15 02:45:50;;;;;;;18.25;9.65;;;7.40;99.90;;;;;;6130082;19;20560;-66
2022/11/15 02:47:55;;;;;;;18.33;10.15;;;7.20;99.90;;;;;;6129772;19;19915;-65
2022/11/15 02:50:03;;;;;;;17.45;9.82;;;7.00;99.90;;;;;;6128415;19;19918;-65
2022/11/15 02:52:07;;;;;;;19.08;10.70;;;;;;;;;;6131838;19;19954;-65
2022/11/15 02:54:16;;;;;;;23.95;11.00;;;7.10;99.90;;;;;;6125466;19;19910;-65
2022/11/15 02:56:20;;;;;;;20.00;10.27;;;7.20;99.90;;;;;;6128459;19;19915;-66
2022/11/15 02:58:59;;;;;;;19.25;10.63;;;7.00;99.90;;;;;;6130147;19;19926;-65
2022/11/15 03:01:15;;;;;;;19.48;10.63;;;8.10;99.90;;;;;;6131193;19;19938;-65
2022/11/15 03:03:40;;;;;;;20.08;10.20;;;7.00;99.90;;;;;;6129721;19;19922;-65
2022/11/15 03:05:49;;;;;;;20.58;11.10;;;7.10;99.90;;;;;;6129085;19;19960;-65
2022/11/15 03:07:59;;;;;;;19.05;11.00;;;7.50;99.90;;;;;;6130187;19;19914;-66
2022/11/15 03:10:09;;;;;;;20.88;10.85;;;7.00;99.90;;;;;;6131427;19;19925;-65
2022/11/15 03:12:21;;;;;;;21.45;10.77;;;7.20;99.90;;;;;;6128514;19;19974;-65
2022/11/15 03:14:31;;;;;;;20.92;10.68;;;7.20;99.90;;;;;;6128003;19;19941;-66
2022/11/15 03:16:42;;;;;;;21.58;11.13;;;7.00;99.90;;;;;;6129177;19;19918;-65
2022/11/15 03:18:50;;;;;;;20.65;11.23;;;7.10;99.90;;;;;;6128634;19;19914;-65
2022/11/15 03:20:54;;;;;;;17.77;10.38;;;7.20;99.90;;;;;;6128665;19;19929;-65
2022/11/15 03:23:03;;;;;;;20.92;9.70;;;7.40;99.90;;;;;;6128791;19;20271;-65
2022/11/15 03:25:11;;;;;;;21.90;10.90;;;7.20;99.90;;;;;;6129879;19;20035;-64
2022/11/15 03:27:18;;;;;;;17.98;9.98;;;7.00;99.90;;;;;;6130623;19;19945;-65
2022/11/15 03:29:27;;;;;;;20.17;10.10;;;7.30;99.90;;;;;;6128453;19;19925;-64
2022/11/15 03:33:53;;;;;;;18.80;10.43;;;6.70;99.90;;;;;;6130398;19;19919;-65
2022/11/15 03:35:58;;;;;;;19.58;9.90;;;7.40;99.90;;;;;;6127968;19;19914;-65
2022/11/15 03:38:08;;;;;;;20.23;9.77;;;7.50;99.90;;;;;;6131136;19;19941;-66
2022/11/15 03:40:13;;;;;;;19.02;11.05;;;7.50;99.90;;;;;;6129400;19;19918;-64
2022/11/15 03:42:25;;;;;;;19.20;9.52;;;7.20;99.90;;;;;;6127781;19;20505;-66
2022/11/15 03:44:39;;;;;;;18.73;10.30;;;7.30;99.90;;;;;;6126547;19;19972;-66
2022/11/15 03:46:49;;;;;;;19.10;8.98;;;7.10;99.90;;;;;;6122599;19;19918;-65
2022/11/15 03:49:03;;;;;;;18.98;8.73;;;7.00;99.90;;;;;;6129839;19;19922;-65
2022/11/15 03:51:08;;;;;;;21.67;9.60;;;7.30;99.90;;;;;;6127618;19;20454;-65
2022/11/15 03:53:12;;;;;;;22.30;11.07;;;7.30;99.90;;;;;;6129528;19;19942;-65
2022/11/15 03:55:19;;;;;;;23.90;11.52;;;9.10;99.90;;;;;;6128981;19;19953;-65
2022/11/15 03:57:23;;;;;;;23.92;10.20;;;7.30;99.90;;;;;;6129098;19;19915;-66
2022/11/15 03:59:27;;;;;;;21.85;10.65;;;;;;;;;;6127317;19;19910;-66
2022/11/15 04:01:31;;;;;;;22.50;9.88;;;6.80;99.90;;;;;;6125926;19;20340;-66
2022/11/15 04:03:35;;;;;;;19.65;9.73;;;7.20;99.90;;;;;;6130686;19;19922;-65
2022/11/15 04:05:41;;;;;;;21.55;10.38;;;7.20;99.90;;;;;;6129496;19;19946;-65
2022/11/15 04:07:45;;;;;;;22.50;10.15;;;7.50;99.90;;;;;;6128983;19;19922;-65
2022/11/15 04:12:06;;;;;;;22.17;10.05;;;7.40;99.90;;;;;;6127263;19;19926;-65
2022/11/15 04:14:10;;;;;;;23.23;11.23;;;7.30;99.90;;;;;;6129665;19;19915;-66
2022/11/15 04:16:14;;;;;;;25.20;10.77;;;7.40;99.90;;;;;;6129174;19;19919;-66
2022/11/15 04:18:18;;;;;;;20.10;10.48;;;7.40;99.90;;;;;;6126824;19;20346;-66
2022/11/15 04:25:00;;;;;;;22.58;10.20;;;7.20;99.90;;;;;;6128716;19;19923;-66
2022/11/15 04:27:04;;;;;;;19.63;10.02;;;7.10;99.90;;;;;;6128905;19;19914;-66
2022/11/15 04:31:24;;;;;;;20.60;10.85;;;7.30;99.90;;;;;;6129568;19;19918;-66
2022/11/15 04:33:28;;;;;;;24.35;10.32;;;7.50;99.90;;;;;;6127484;19;20296;-66
2022/11/15 04:35:32;;;;;;;23.17;9.80;;;7.40;99.90;;;;;;6129491;19;20011;-66
2022/11/15 04:37:34;;;;;;;23.05;10.65;;;;;;;;;;6121592;19;19914;-66
2022/11/15 04:39:40;;;;;;;20.73;10.73;;;7.50;99.90;;;;;;6126963;19;19974;-66
2022/11/15 04:41:44;;;;;;;18.02;9.88;;;;;;;;;;6128937;19;19927;-66
2022/11/15 04:43:48;;;;;;;21.63;10.38;;;7.40;99.90;;;;;;6125724;19;19938;-65
2022/11/15 04:45:52;;;;;;;20.35;10.07;;;7.40;99.90;;;;;;6129730;19;20039;-66
2022/11/15 04:47:56;;;;;;;22.48;10.73;;;7.40;99.90;;;;;;6131341;19;19925;-65
2022/11/15 04:49:59;;;;;;;23.85;10.93;;;7.60;99.90;;;;;;6126566;19;19919;-66
2022/11/15 04:52:03;;;;;;;21.85;11.00;;;7.50;99.90;;;;;;6129543;19;19914;-65
2022/11/15 04:54:07;;;;;;;29.80;11.75;;;;;;;;;;6120008;19;19949;-66
2022/11/15 04:56:14;;;;;;;26.67;10.93;;;7.30;99.90;;;;;;6128998;19;19946;-66
2022/11/15 04:58:18;;;;;;;24.95;10.50;;;7.40;99.90;;;;;;6131769;19;19938;-65
2022/11/15 05:00:22;;;;;;;25.23;11.52;;;;;;;;;;6131250;19;19962;-65
2022/11/15 05:04:18;;;;;;;22.30;11.13;;;7.60;99.90;;;;;;6130509;19;20267;-65
2022/11/15 05:04:48;;;;;;;22.20;11.70;;;;;;;;;;6133638;19;19914;-65
2022/11/15 05:06:53;;;;;;;22.48;12.25;;;7.70;99.90;;;;;;6131405;19;19922;-65
2022/11/15 05:08:57;;;;;;;27.65;11.73;;;7.70;99.90;;;;;;6131996;19;19939;-65
2022/11/15 05:11:01;;;;;;;24.55;11.27;;;7.50;99.90;;;;;;6131481;19;19918;-65
2022/11/15 05:13:07;;;;;;;22.77;10.95;;;7.70;99.90;;;;;;6131087;19;19910;-65
2022/11/15 05:15:12;;;;;;;23.33;10.65;;;7.60;99.90;;;;;;6134200;19;19918;-65
2022/11/15 05:17:16;;;;;;;29.10;11.93;;;7.70;99.90;;;;;;6131535;19;19946;-65
2022/11/15 05:19:20;;;;;;;25.17;11.35;;;7.40;99.90;;;;;;6125838;19;19949;-66
2022/11/15 05:21:25;;;;;;;21.02;10.98;;;7.60;99.90;;;;;;6132649;19;19918;-65
2022/11/15 05:23:28;;;;;;;26.23;13.23;;;7.50;99.90;;;;;;6133180;19;19982;-65
2022/11/15 05:25:32;;;;;;;23.50;11.18;;;7.50;99.90;;;;;;6130311;19;19945;-65
2022/11/15 05:27:37;;;;;;;28.30;11.88;;;7.70;99.90;;;;;;6132354;19;20256;-65
2022/11/15 05:29:43;;;;;;;30.17;11.63;;;7.60;99.90;;;;;;6129622;19;20304;-64
2022/11/15 05:31:47;;;;;;;29.50;11.98;;;8.10;99.90;;;;;;6133618;19;19938;-65
2022/11/15 05:33:53;;;;;;;24.60;11.35;;;7.90;99.90;;;;;;6130137;19;19946;-64
2022/11/15 05:36:03;;;;;;;22.13;10.45;;;7.80;99.90;;;;;;6124391;19;19919;-65
2022/11/15 05:38:07;;;;;;;25.15;11.77;;;7.80;99.90;;;;;;6130209;19;19919;-65
2022/11/15 05:40:11;;;;;;;24.38;11.88;;;7.50;99.90;;;;;;6131139;19;19923;-65
2022/11/15 05:42:16;;;;;;;24.55;11.70;;;7.70;99.90;;;;;;6131988;19;19946;-65
2022/11/15 05:44:25;;;;;;;26.27;11.88;;;7.80;99.90;;;;;;6128886;19;19918;-65
2022/11/15 05:46:32;;;;;;;30.00;12.27;;;7.80;99.90;;;;;;6131326;19;19923;-65
2022/11/15 05:48:38;;;;;;;28.42;12.95;;;7.70;99.90;;;;;;6130973;19;19922;-65
2022/11/15 05:50:45;;;;;;;27.55;11.80;;;7.80;99.90;;;;;;6130329;19;19946;-65
2022/11/15 05:52:50;;;;;;;27.27;12.55;;;7.80;99.90;;;;;;6132690;19;19941;-64
2022/11/15 05:54:55;;;;;;;26.63;12.43;;;7.80;99.90;;;;;;6130108;19;19939;-65
2022/11/15 05:56:59;;;;;;;29.02;12.25;;;;;;;;;;6132079;19;20266;-65
2022/11/15 05:59:03;;;;;;;34.95;12.63;;;8.10;99.90;;;;;;6130832;19;19922;-65
2022/11/15 06:01:08;;;;;;;26.88;11.35;;;7.80;99.90;;;;;;6122906;19;19923;-65
2022/11/15 06:03:14;;;;;;;26.92;12.60;;;7.80;99.90;;;;;;6133836;19;19923;-65
2022/11/15 06:05:18;;;;;;;26.15;12.63;;;8.00;99.90;;;;;;6133595;19;19919;-64
2022/11/15 06:07:22;;;;;;;30.83;13.38;;;7.80;99.90;;;;;;6131202;19;20348;-65
2022/11/15 06:09:26;;;;;;;30.17;12.50;;;8.10;99.90;;;;;;6127255;19;19915;-65
2022/11/15 06:11:30;;;;;;;31.77;14.57;;;7.80;99.90;;;;;;6129729;19;19939;-66
2022/11/15 06:13:34;;;;;;;31.48;13.93;;;8.30;99.90;;;;;;6132259;19;19922;-65
2022/11/15 06:15:39;;;;;;;32.45;12.50;;;7.90;99.90;;;;;;6129627;19;19910;-65
2022/11/15 06:17:43;;;;;;;35.00;14.25;;;;;;;;;;6124846;19;19915;-66
2022/11/15 06:19:50;;;;;;;36.42;15.45;;;8.50;99.90;;;;;;6130763;19;20257;-66
2022/11/15 06:21:54;;;;;;;40.65;13.80;;;8.40;99.90;;;;;;6132382;19;19922;-65
2022/11/15 06:23:58;;;;;;;31.73;13.63;;;;;;;;;;6130186;19;19933;-65
2022/11/15 06:26:02;;;;;;;31.20;14.32;;;8.30;99.90;;;;;;6129058;19;20332;-65
2022/11/15 06:28:07;;;;;;;32.30;13.93;;;8.40;99.90;;;;;;6129895;19;19987;-65
2022/11/15 06:30:12;;;;;;;33.88;14.27;;;8.30;99.90;;;;;;6130663;19;19982;-65
2022/11/15 06:32:16;;;;;;;26.17;11.90;;;8.70;99.90;;;;;;6131220;19;19938;-65
2022/11/15 06:34:20;;;;;;;35.00;12.50;;;8.60;99.90;;;;;;6121448;19;20054;-65
2022/11/15 06:36:27;;;;;;;27.25;12.73;;;8.40;99.90;;;;;;6120543;19;19978;-65
2022/11/15 06:38:31;;;;;;;25.73;12.10;;;;;;;;;;6131594;19;19931;-65
2022/11/15 06:40:37;;;;;;;30.00;13.43;;;8.70;99.90;;;;;;6130063;19;19915;-65
2022/11/15 06:42:41;;;;;;;28.95;12.68;;;9.00;99.90;;;;;;6130420;19;20311;-65
2022/11/15 06:44:45;;;;;;;25.05;11.82;;;;;;;;;;6128344;19;19918;-65
2022/11/15 06:46:49;;;;;;;29.15;11.95;;;8.70;99.90;;;;;;6129184;19;20388;-66
2022/11/15 06:48:53;;;;;;;30.63;12.07;;;8.70;99.90;;;;;;6130681;19;20236;-66
2022/11/15 06:50:59;;;;;;;26.52;11.93;;;8.40;99.90;;;;;;6128045;19;20340;-65
2022/11/15 06:53:06;;;;;;;26.17;12.43;;;8.60;99.90;;;;;;6132701;19;20300;-66
2022/11/15 06:55:11;;;;;;;30.67;11.68;;;8.50;99.90;;;;;;6128005;19;19922;-65
2022/11/15 06:57:15;;;;;;;23.10;11.82;;;;;;;;;;6128279;19;20295;-65
2022/11/15 06:59:19;;;;;;;29.42;11.02;;;;;;;;;;6115199;19;19929;-66
2022/11/15 07:01:23;;;;;;;28.05;11.60;;;8.60;99.90;;;;;;6125789;19;19958;-66
2022/11/15 07:03:28;;;;;;;21.27;11.48;;;;;;;;;;6131039;19;19919;-66
2022/11/15 07:05:32;;;;;;;25.80;11.60;;;8.80;99.90;;;;;;6128838;19;19950;-66
2022/11/15 07:07:36;;;;;;;21.52;11.23;;;;;;;;;;6131439;19;19918;-66
2022/11/15 07:09:42;;;;;;;24.17;11.48;;;8.90;99.90;;;;;;6127754;19;19944;-66
2022/11/15 07:11:47;;;;;;;24.40;11.75;;;8.70;99.90;;;;;;6123286;19;19978;-65
2022/11/15 07:13:50;;;;;;;22.77;10.95;;;8.70;99.90;;;;;;6127684;19;20376;-66
2022/11/15 07:15:55;;;;;;;17.65;9.82;;;8.70;99.90;;;;;;6129204;19;19921;-65
2022/11/15 07:18:20;;;;;;;27.15;11.10;;;8.50;99.90;;;;;;6127938;19;20375;-65
2022/11/15 07:20:23;;;;;;;24.67;10.70;;;8.60;99.90;;;;;;6125099;19;20248;-66
2022/11/15 07:22:27;;;;;;;22.38;10.20;;;9.00;99.90;;;;;;6129511;19;20276;-65
2022/11/15 07:24:31;;;;;;;23.52;11.27;;;8.80;99.90;;;;;;6128156;19;19921;-65
2022/11/15 07:26:38;;;;;;;20.08;9.73;;;8.90;99.90;;;;;;6130042;19;19922;-65
2022/11/15 07:28:42;;;;;;;21.45;10.25;;;9.10;99.90;;;;;;6127867;19;19935;-65
2022/11/15 07:30:46;;;;;;;18.45;10.18;;;8.80;99.90;;;;;;6118294;19;19925;-66
2022/11/15 07:32:50;;;;;;;18.52;9.18;;;9.10;99.90;;;;;;6130957;19;19923;-65
2022/11/15 07:34:54;;;;;;;22.33;10.60;;;;;;;;;;6128763;19;19922;-65
2022/11/15 07:36:59;;;;;;;22.33;10.38;;;9.20;99.90;;;;;;6129185;19;19919;-65
2022/11/15 07:39:03;;;;;;;18.45;11.20;;;;;;;;;;6127586;19;20268;-65
2022/11/15 07:41:08;;;;;;;19.45;9.63;;;9.10;99.90;;;;;;6127511;19;19922;-65
2022/11/15 07:43:14;;;;;;;22.60;9.40;;;9.50;99.90;;;;;;6126594;19;19915;-66
2022/11/15 07:45:18;;;;;;;24.10;10.02;;;9.10;99.90;;;;;;6127095;19;19926;-65
2022/11/15 07:47:22;;;;;;;17.27;10.63;;;9.40;99.90;;;;;;6118941;19;19939;-65
2022/11/15 07:49:26;;;;;;;18.17;9.27;;;9.10;99.90;;;;;;6129482;19;19935;-65
2022/11/15 07:51:30;;;;;;;15.40;9.35;;;9.10;99.90;;;;;;6127780;19;19915;-65
2022/11/15 07:53:33;;;;;;;17.38;9.82;;;9.00;99.90;;;;;;6129805;19;19918;-65
2022/11/15 07:55:37;;;;;;;17.35;9.98;;;9.10;99.90;;;;;;6128506;19;20375;-65
2022/11/15 07:57:42;;;;;;;22.08;9.40;;;;;;;;;;6127374;19;19911;-64
2022/11/15 07:59:48;;;;;;;19.00;9.73;;;9.20;99.90;;;;;;6127580;19;19942;-64
2022/11/15 08:01:53;;;;;;;19.35;9.27;;;;;;;;;;6128145;19;20260;-64
2022/11/15 08:03:57;;;;;;;17.95;9.20;;;9.30;99.90;;;;;;6119600;19;19942;-65
2022/11/15 08:06:01;;;;;;;19.17;8.75;;;9.50;99.90;;;;;;6128379;19;20328;-65
2022/11/15 08:08:07;;;;;;;18.70;9.95;;;9.40;99.90;;;;;;6126577;19;19974;-64
2022/11/15 08:10:16;;;;;;;19.55;9.77;;;8.80;99.90;;;;;;6125452;19;19946;-64
2022/11/15 08:12:20;;;;;;;21.00;10.75;;;9.30;99.90;;;;;;6128078;19;19987;-64
2022/11/15 08:14:25;;;;;;;20.90;10.15;;;;;;;;;;6126338;19;19928;-64
2022/11/15 08:16:33;;;;;;;14.75;8.95;;;9.30;99.90;;;;;;6127855;19;19914;-64
2022/11/15 08:18:37;;;;;;;20.58;10.50;;;9.40;99.90;;;;;;6128982;19;19921;-64
2022/11/15 08:20:41;;;;;;;19.05;9.48;;;9.60;99.90;;;;;;6124011;19;20392;-65
2022/11/15 08:22:45;;;;;;;20.90;9.95;;;9.40;99.90;;;;;;6125352;19;19925;-66
2022/11/15 08:24:50;;;;;;;23.25;9.85;;;;;;;;;;6128515;19;20466;-65
2022/11/15 08:26:54;;;;;;;18.92;10.52;;;9.60;99.90;;;;;;6128213;19;19922;-65
2022/11/15 08:28:58;;;;;;;20.77;10.00;;;;;;;;;;6130123;19;19915;-65
2022/11/15 08:31:02;;;;;;;21.25;10.60;;;9.70;99.90;;;;;;6122896;19;19918;-65
2022/11/15 08:33:12;;;;;;;18.75;9.30;;;10.00;99.90;;;;;;6128151;19;19915;-65
2022/11/15 08:35:16;;;;;;;18.83;9.70;;;9.80;99.90;;;;;;6127364;19;19974;-65
2022/11/15 08:37:20;;;;;;;18.20;9.43;;;9.60;99.90;;;;;;6128540;19;19918;-65
2022/11/15 08:39:24;;;;;;;19.17;9.52;;;;;;;;;;6122565;19;20354;-65
2022/11/15 08:41:32;;;;;;;17.98;10.02;;;10.10;99.90;;;;;;6127059;19;19918;-65
2022/11/15 08:43:36;;;;;;;16.92;9.57;;;10.30;99.90;;;;;;6128415;19;19919;-65
2022/11/15 08:45:40;;;;;;;15.82;9.60;;;10.30;99.90;;;;;;6128606;19;19979;-65
2022/11/15 08:47:44;;;;;;;20.75;9.88;;;;;;;;;;6126300;19;19922;-64
2022/11/15 08:49:50;;;;;;;19.88;10.38;;;10.20;99.90;;;;;;6126374;19;19946;-65
2022/11/15 08:51:54;;;;;;;19.08;9.38;;;10.20;99.90;;;;;;6127153;19;20271;-65
2022/11/15 08:53:58;;;;;;;16.63;9.85;;;10.00;99.90;;;;;;6125962;19;19915;-65
2022/11/15 08:56:02;;;;;;;18.25;10.00;;;9.90;99.90;;;;;;6123392;19;19961;-65
2022/11/15 08:58:06;;;;;;;18.58;9.50;;;;;;;;;;6125896;19;19915;-65
2022/11/15 09:00:12;;;;;;;18.10;10.10;;;10.00;99.90;;;;;;6124311;19;19919;-65
2022/11/15 09:02:16;;;;;;;18.45;10.20;;;10.20;99.90;;;;;;6124185;19;19915;-65
2022/11/15 09:04:20;;;;;;;17.52;9.65;;;10.20;99.90;;;;;;6127011;19;20016;-65
2022/11/15 09:06:27;;;;;;;20.42;10.35;;;10.40;99.90;;;;;;6127875;19;19989;-65
2022/11/15 09:08:33;;;;;;;18.13;10.65;;;10.70;99.90;;;;;;6126056;19;20351;-65
2022/11/15 09:10:37;;;;;;;19.88;10.05;;;10.40;99.90;;;;;;6127342;19;19918;-65
2022/11/15 09:12:41;;;;;;;19.58;10.20;;;10.50;99.90;;;;;;6124339;19;19974;-66
2022/11/15 09:14:45;;;;;;;20.67;10.40;;;10.20;99.90;;;;;;6126596;19;19924;-66
2022/11/15 09:16:49;;;;;;;24.05;11.40;;;10.20;99.90;;;;;;6114481;19;20637;-66
2022/11/15 09:18:54;;;;;;;22.38;10.48;;;11.00;99.90;;;;;;6127946;19;19918;-67
2022/11/15 09:20:59;;;;;;;23.00;12.52;;;10.50;99.90;;;;;;6124465;19;19950;-73
2022/11/15 09:23:07;;;;;;;22.48;10.38;;;10.60;99.90;;;;;;6108898;19;19939;-70
2022/11/15 09:25:11;;;;;;;23.17;11.93;;;10.60;99.90;;;;;;6105793;19;20542;-70
2022/11/15 09:27:15;;;;;;;22.02;10.68;;;10.70;99.90;;;;;;6123403;19;19930;-69
2022/11/15 09:29:19;;;;;;;20.75;10.80;;;10.60;99.90;;;;;;6120041;19;19930;-69
2022/11/15 09:31:24;;;;;;;18.83;11.18;;;10.80;99.90;;;;;;6106860;19;19922;-69
2022/11/15 09:33:29;;;;;;;17.33;10.43;;;10.60;99.90;;;;;;6122865;19;20007;-70
2022/11/15 09:35:34;;;;;;;20.00;10.50;;;10.60;99.90;;;;;;6125700;19;19930;-68
2022/11/15 09:37:38;;;;;;;19.83;9.90;;;10.50;99.90;;;;;;6125005;19;19950;-67
2022/11/15 09:39:44;;;;;;;16.70;9.55;;;10.80;99.90;;;;;;6125146;19;20337;-68
2022/11/15 09:42:08;;;;;;;19.38;10.00;;;10.40;99.90;;;;;;6123418;19;19914;-68
2022/11/15 09:44:35;;;;;;;20.70;9.73;;;10.60;99.90;;;;;;6127595;19;20361;-69
2022/11/15 09:46:48;;;;;;;19.85;9.45;;;10.70;99.90;;;;;;6128963;19;20344;-69
2022/11/15 09:48:56;;;;;;;18.17;9.00;;;10.80;99.90;;;;;;6119800;19;19918;-67
2022/11/15 09:51:03;;;;;;;15.15;9.00;;;;;;;;;;6129443;19;20356;-66
2022/11/15 09:53:07;;;;;;;16.20;8.68;;;10.40;99.90;;;;;;6126526;19;20267;-68
2022/11/15 09:55:21;;;;;;;15.55;9.10;;;10.50;99.90;;;;;;6130333;19;20309;-68
2022/11/15 09:57:33;;;;;;;16.42;9.35;;;10.50;99.90;;;;;;5940739;19;20035;-70
2022/11/15 09:59:53;;;;;;;20.83;9.75;;;10.50;99.90;;;;;;6028245;19;19914;-70
2022/11/15 10:02:06;;;;;;;17.83;9.30;;;10.80;99.90;;;;;;6129905;19;20246;-70
2022/11/15 10:04:11;;;;;;;17.73;8.82;;;10.70;99.90;;;;;;6127706;19;19942;-72
2022/11/15 10:06:25;;;;;;;17.60;10.07;;;10.80;99.90;;;;;;6130118;19;19922;-68
2022/11/15 10:08:54;;;;;;;18.75;10.25;;;10.70;99.90;;;;;;6129103;19;19929;-68
2022/11/15 10:11:03;;;;;;;16.13;9.45;;;10.60;99.90;;;;;;6127498;19;19922;-69
2022/11/15 10:13:07;;;;;;;16.35;8.75;;;10.60;99.90;;;;;;6130335;19;19911;-68
2022/11/15 10:15:16;;;;;;;15.60;9.23;;;10.60;99.90;;;;;;6120046;19;20320;-68
2022/11/15 10:17:50;;;;;;;14.18;8.32;;;10.60;99.90;;;;;;6118036;19;20349;-68
2022/11/15 10:20:05;;;;;;;15.10;9.35;;;10.70;99.90;;;;;;6130359;19;19924;-68
2022/11/15 10:22:23;;;;;;;14.32;8.30;;;10.70;99.90;;;;;;6129458;19;19918;-69
2022/11/15 10:24:31;;;;;;;13.23;9.05;;;10.80;99.90;;;;;;6125323;19;19919;-68
2022/11/15 10:26:37;;;;;;;14.13;8.20;;;10.70;99.90;;;;;;6128308;19;19960;-69
2022/11/15 10:28:41;;;;;;;16.67;8.68;;;10.50;99.90;;;;;;6127917;19;19962;-69
2022/11/15 10:30:47;;;;;;;12.73;8.43;;;10.70;99.90;;;;;;6128226;19;20009;-69
2022/11/15 10:32:53;;;;;;;15.50;8.15;;;10.60;99.90;;;;;;6129161;19;20380;-68
2022/11/15 10:34:57;;;;;;;12.02;8.15;;;;;;;;;;6116151;19;19922;-67
2022/11/15 10:37:02;;;;;;;15.82;8.18;;;10.50;99.90;;;;;;6129275;19;19978;-69
2022/11/15 10:39:06;;;;;;;16.77;8.48;;;10.50;99.90;;;;;;6127994;19;19922;-69
2022/11/15 10:41:10;;;;;;;16.10;8.32;;;10.60;99.90;;;;;;6128388;19;19978;-69
2022/11/15 10:43:21;;;;;;;15.57;8.15;;;10.80;99.90;;;;;;6129057;19;19926;-69
2022/11/15 10:45:28;;;;;;;13.18;7.82;;;10.50;99.90;;;;;;6127993;19;20339;-69
2022/11/15 10:47:33;;;;;;;15.60;8.52;;;10.80;99.90;;;;;;6127673;19;19982;-71
2022/11/15 10:49:37;;;;;;;14.52;8.38;;;10.70;99.90;;;;;;6128661;19;19914;-70
2022/11/15 10:51:45;;;;;;;12.45;8.43;;;8.90;99.90;;;;;;6113915;19;20104;-68
2022/11/15 10:53:49;;;;;;;11.88;7.32;;;10.80;99.90;;;;;;6123975;19;19918;-66
2022/11/15 10:55:58;;;;;;;14.18;9.18;;;10.90;99.90;;;;;;6127624;19;20278;-66
2022/11/15 10:58:06;;;;;;;12.43;7.38;;;10.70;99.90;;;;;;6126940;19;20293;-66
2022/11/15 11:00:33;;;;;;;12.90;7.97;;;10.70;99.90;;;;;;6127195;19;19920;-67
2022/11/15 11:02:39;;;;;;;14.55;8.00;;;10.90;99.90;;;;;;6128988;19;19924;-65
2022/11/15 11:04:53;;;;;;;14.25;8.10;;;10.90;99.90;;;;;;6127869;19;20340;-65
2022/11/15 11:06:59;;;;;;;14.13;8.05;;;11.40;99.90;;;;;;6122019;19;19926;-65
2022/11/15 11:09:04;;;;;;;12.75;8.38;;;10.50;99.90;;;;;;6128040;19;20427;-64
2022/11/15 11:11:10;;;;;;;14.00;8.82;;;10.70;99.90;;;;;;6127642;19;19923;-64
2022/11/15 11:13:18;;;;;;;13.20;7.85;;;10.70;99.90;;;;;;6128707;19;19930;-65
2022/11/15 11:15:28;;;;;;;10.15;7.63;;;11.30;99.90;;;;;;6129133;19;19927;-65